createdAt,value
2019-02-05T00:00:05.065Z,8.70
2019-02-05T00:01:04.970Z,8.60
2019-02-05T00:02:04.886Z,8.20
2019-02-05T00:03:04.819Z,9.00
2019-02-05T00:04:04.710Z,9.60
2019-02-05T00:05:04.622Z,10.00
2019-02-05T00:06:04.540Z,9.20
2019-02-05T00:07:04.449Z,8.80
2019-02-05T00:08:04.375Z,8.80
2019-02-05T00:09:04.278Z,9.00
2019-02-05T00:10:04.187Z,9.10
2019-02-05T00:11:04.107Z,9.30
2019-02-05T00:12:04.011Z,8.20
2019-02-05T00:13:03.945Z,9.70
2019-02-05T00:14:03.839Z,8.60
2019-02-05T00:15:03.767Z,9.20
2019-02-05T00:16:03.663Z,8.90
2019-02-05T00:17:03.581Z,8.00
2019-02-05T00:18:03.502Z,8.50
2019-02-05T00:19:03.402Z,8.90
2019-02-05T00:20:03.323Z,8.30
2019-02-05T00:21:03.232Z,9.90
2019-02-05T00:22:03.141Z,9.60
2019-02-05T00:23:03.073Z,9.60
2019-02-05T00:24:02.966Z,10.30
2019-02-05T00:25:02.879Z,8.80
2019-02-05T00:26:06.193Z,8.10
2019-02-05T00:27:02.705Z,8.50
2019-02-05T00:28:02.630Z,7.80
2019-02-05T00:29:02.539Z,9.00
2019-02-05T00:30:02.444Z,8.60
2019-02-05T00:31:02.356Z,7.70
2019-02-05T00:32:02.285Z,8.10
2019-02-05T00:33:02.197Z,7.90
2019-02-05T00:34:02.099Z,8.20
2019-02-05T00:35:02.016Z,7.80
2019-02-05T00:36:01.925Z,8.70
2019-02-05T00:37:01.832Z,8.80
2019-02-05T00:38:01.768Z,9.10
2019-02-05T00:39:01.660Z,8.80
2019-02-05T00:40:01.575Z,9.40
2019-02-05T00:41:01.496Z,8.70
2019-02-05T00:42:01.398Z,9.80
2019-02-05T00:43:01.390Z,8.80
2019-02-05T00:44:01.232Z,8.40
2019-02-05T00:45:01.178Z,8.80
2019-02-05T00:46:01.052Z,11.50
2019-02-05T00:47:00.971Z,9.60
2019-02-05T00:48:01.179Z,9.80
2019-02-05T00:49:00.789Z,8.90
2019-02-05T00:50:00.731Z,10.30
2019-02-05T00:51:00.615Z,9.90
2019-02-05T00:52:00.526Z,9.00
2019-02-05T00:53:00.449Z,9.50
2019-02-05T00:54:00.364Z,10.60
2019-02-05T00:55:00.328Z,10.30
2019-02-05T00:56:00.181Z,9.30
2019-02-05T00:57:00.097Z,11.60
2019-02-05T00:58:00.006Z,10.10
2019-02-05T00:58:59.939Z,10.20
2019-02-05T00:59:59.831Z,10.80
2019-02-05T01:00:59.755Z,10.70
2019-02-05T01:01:59.658Z,10.00
2019-02-05T01:02:59.578Z,11.50
2019-02-05T01:03:59.497Z,10.70
2019-02-05T01:04:59.402Z,10.80
2019-02-05T01:05:59.311Z,10.70
2019-02-05T01:06:59.225Z,11.70
2019-02-05T01:07:59.133Z,11.00
2019-02-05T01:08:59.066Z,10.60
2019-02-05T01:09:58.962Z,11.50
2019-02-05T01:10:58.881Z,9.80
2019-02-05T01:11:58.788Z,9.80
2019-02-05T01:12:58.705Z,10.50
2019-02-05T01:13:58.625Z,11.60
2019-02-05T01:14:58.536Z,11.70
2019-02-05T01:15:58.443Z,10.50
2019-02-05T01:16:58.357Z,10.40
2019-02-05T01:17:58.264Z,10.40
2019-02-05T01:18:58.192Z,11.10
2019-02-05T01:19:58.099Z,10.00
2019-02-05T01:20:58.070Z,10.20
2019-02-05T01:21:57.917Z,11.10
2019-02-05T01:22:57.833Z,9.90
2019-02-05T01:23:57.755Z,10.50
2019-02-05T01:24:57.655Z,11.00
2019-02-05T01:25:57.573Z,10.00
2019-02-05T01:26:57.479Z,10.90
2019-02-05T01:27:57.398Z,10.50
2019-02-05T01:28:57.320Z,11.10
2019-02-05T01:29:57.224Z,10.20
2019-02-05T01:30:57.138Z,10.80
2019-02-05T01:31:57.050Z,11.10
2019-02-05T01:32:56.961Z,10.90
2019-02-05T01:33:56.892Z,12.90
2019-02-05T01:34:56.784Z,12.70
2019-02-05T01:35:56.701Z,12.70
2019-02-05T01:36:56.608Z,11.10
2019-02-05T01:37:56.532Z,11.40
2019-02-05T01:38:56.449Z,11.30
2019-02-05T01:39:56.355Z,11.00
2019-02-05T01:40:56.263Z,11.70
2019-02-05T01:41:56.179Z,12.00
2019-02-05T01:42:56.089Z,11.60
2019-02-05T01:43:56.017Z,10.40
2019-02-05T01:44:55.912Z,11.00
2019-02-05T01:45:55.825Z,12.50
2019-02-05T01:46:55.753Z,13.00
2019-02-05T01:47:55.652Z,11.50
2019-02-05T01:48:55.579Z,10.70
2019-02-05T01:49:55.484Z,10.70
2019-02-05T01:50:55.389Z,12.30
2019-02-05T01:51:55.305Z,11.40
2019-02-05T01:52:55.225Z,10.30
2019-02-05T01:53:55.147Z,10.40
2019-02-05T01:54:55.047Z,12.40
2019-02-05T01:55:54.963Z,11.90
2019-02-05T01:56:54.866Z,11.00
2019-02-05T01:57:54.786Z,13.20
2019-02-05T01:58:54.707Z,11.90
2019-02-05T01:59:54.608Z,11.10
2019-02-05T02:00:54.523Z,13.40
2019-02-05T02:01:54.432Z,11.70
2019-02-05T02:02:54.347Z,12.50
2019-02-05T02:03:54.276Z,11.30
2019-02-05T02:04:54.170Z,9.90
2019-02-05T02:05:54.091Z,11.50
2019-02-05T02:06:53.996Z,11.50
2019-02-05T02:07:53.914Z,10.80
2019-02-05T02:08:53.834Z,11.90
2019-02-05T02:09:53.741Z,12.50
2019-02-05T02:10:53.648Z,12.10
2019-02-05T02:11:53.568Z,12.90
2019-02-05T02:12:53.474Z,12.30
2019-02-05T02:13:53.422Z,12.10
2019-02-05T02:14:53.302Z,12.60
2019-02-05T02:15:53.219Z,11.40
2019-02-05T02:16:53.150Z,13.20
2019-02-05T02:17:53.047Z,13.10
2019-02-05T02:18:52.951Z,12.70
2019-02-05T02:19:52.885Z,12.30
2019-02-05T02:20:52.780Z,13.40
2019-02-05T02:21:52.697Z,11.80
2019-02-05T02:22:52.604Z,11.50
2019-02-05T02:23:52.523Z,13.00
2019-02-05T02:24:52.443Z,14.20
2019-02-05T02:25:52.342Z,12.10
2019-02-05T02:26:52.513Z,12.20
2019-02-05T02:27:52.167Z,13.80
2019-02-05T02:28:52.080Z,12.40
2019-02-05T02:29:52.014Z,12.80
2019-02-05T02:30:51.907Z,12.70
2019-02-05T02:31:51.821Z,13.00
2019-02-05T02:32:51.739Z,14.40
2019-02-05T02:33:51.646Z,13.00
2019-02-05T02:34:51.574Z,12.90
2019-02-05T02:35:51.475Z,13.50
2019-02-05T02:36:51.383Z,13.20
2019-02-05T02:37:51.303Z,12.70
2019-02-05T02:38:51.208Z,13.20
2019-02-05T02:39:51.141Z,13.30
2019-02-05T02:40:51.038Z,13.80
2019-02-05T02:41:50.956Z,14.70
2019-02-05T02:42:50.861Z,13.70
2019-02-05T02:43:50.783Z,14.20
2019-02-05T02:44:50.700Z,16.80
2019-02-05T02:45:50.600Z,14.30
2019-02-05T02:46:50.521Z,15.60
2019-02-05T02:47:50.426Z,14.30
2019-02-05T02:48:50.347Z,15.80
2019-02-05T02:49:50.270Z,14.50
2019-02-05T02:50:50.166Z,15.90
2019-02-05T02:51:50.084Z,13.40
2019-02-05T02:52:49.998Z,14.90
2019-02-05T02:53:49.910Z,15.00
2019-02-05T02:54:49.833Z,16.70
2019-02-05T02:55:49.739Z,15.80
2019-02-05T02:56:49.646Z,16.20
2019-02-05T02:57:49.565Z,14.20
2019-02-05T02:58:49.471Z,15.90
2019-02-05T02:59:49.405Z,16.10
2019-02-05T03:00:49.292Z,17.30
2019-02-05T03:01:49.214Z,15.40
2019-02-05T03:02:49.123Z,14.60
2019-02-05T03:03:49.041Z,14.20
2019-02-05T03:04:48.959Z,17.10
2019-02-05T03:05:48.859Z,16.10
2019-02-05T03:06:48.778Z,15.90
2019-02-05T03:07:48.687Z,17.50
2019-02-05T03:08:48.601Z,17.20
2019-02-05T03:09:48.542Z,18.20
2019-02-05T03:10:48.425Z,18.30
2019-02-05T03:11:48.343Z,19.70
2019-02-05T03:12:48.254Z,18.40
2019-02-05T03:13:48.164Z,19.60
2019-02-05T03:14:48.087Z,20.50
2019-02-05T03:15:47.992Z,18.00
2019-02-05T03:16:47.897Z,19.70
2019-02-05T03:17:47.827Z,18.10
2019-02-05T03:18:47.726Z,19.40
2019-02-05T03:19:47.658Z,19.70
2019-02-05T03:20:47.551Z,20.40
2019-02-05T03:21:47.468Z,20.00
2019-02-05T03:22:47.376Z,20.10
2019-02-05T03:23:47.296Z,21.50
2019-02-05T03:24:47.213Z,19.70
2019-02-05T03:25:47.116Z,22.00
2019-02-05T03:26:47.044Z,22.50
2019-02-05T03:27:46.939Z,20.50
2019-02-05T03:28:46.854Z,23.30
2019-02-05T03:29:46.787Z,22.00
2019-02-05T03:30:46.683Z,21.30
2019-02-05T03:31:46.592Z,22.30
2019-02-05T03:32:46.520Z,24.20
2019-02-05T03:33:46.416Z,24.40
2019-02-05T03:34:46.351Z,23.90
2019-02-05T03:35:46.242Z,22.30
2019-02-05T03:36:46.166Z,24.60
2019-02-05T03:37:46.068Z,23.10
2019-02-05T03:38:45.988Z,22.60
2019-02-05T03:39:45.903Z,22.10
2019-02-05T03:40:45.811Z,23.70
2019-02-05T03:41:45.723Z,25.80
2019-02-05T03:42:45.638Z,24.80
2019-02-05T03:43:45.547Z,23.60
2019-02-05T03:44:45.492Z,26.80
2019-02-05T03:45:45.378Z,26.10
2019-02-05T03:46:45.282Z,25.70
2019-02-05T03:47:45.199Z,27.20
2019-02-05T03:48:45.106Z,25.20
2019-02-05T03:49:45.021Z,24.30
2019-02-05T03:50:44.954Z,24.90
2019-02-05T03:51:44.843Z,25.00
2019-02-05T03:52:44.765Z,24.20
2019-02-05T03:53:44.669Z,26.90
2019-02-05T03:54:44.587Z,26.80
2019-02-05T03:55:44.505Z,25.20
2019-02-05T03:56:44.406Z,24.50
2019-02-05T03:57:44.335Z,28.20
2019-02-05T03:58:44.233Z,24.90
2019-02-05T03:59:44.144Z,27.70
2019-02-05T04:00:44.085Z,25.00
2019-02-05T04:01:43.971Z,26.70
2019-02-05T04:02:43.891Z,26.60
2019-02-05T04:03:43.797Z,26.20
2019-02-05T04:04:43.715Z,29.10
2019-02-05T04:05:43.636Z,26.10
2019-02-05T04:06:43.538Z,24.80
2019-02-05T04:07:43.455Z,26.70
2019-02-05T04:08:43.358Z,24.90
2019-02-05T04:09:43.269Z,26.30
2019-02-05T04:10:43.209Z,24.30
2019-02-05T04:11:43.096Z,27.30
2019-02-05T04:12:43.011Z,27.20
2019-02-05T04:13:42.929Z,26.30
2019-02-05T04:14:42.834Z,27.40
2019-02-05T04:15:42.758Z,26.80
2019-02-05T04:16:42.663Z,27.00
2019-02-05T04:17:42.576Z,27.70
2019-02-05T04:18:42.489Z,28.10
2019-02-05T04:19:42.409Z,26.10
2019-02-05T04:20:42.323Z,28.10
2019-02-05T04:21:42.223Z,29.00
2019-02-05T04:22:42.140Z,30.80
2019-02-05T04:23:42.046Z,28.70
2019-02-05T04:24:41.966Z,30.70
2019-02-05T04:25:41.887Z,27.50
2019-02-05T04:26:41.793Z,28.70
2019-02-05T04:27:45.014Z,27.60
2019-02-05T04:28:41.615Z,30.20
2019-02-05T04:29:41.527Z,29.60
2019-02-05T04:30:41.455Z,28.70
2019-02-05T04:31:41.349Z,29.70
2019-02-05T04:32:41.263Z,27.70
2019-02-05T04:33:41.179Z,28.50
2019-02-05T04:34:41.086Z,30.70
2019-02-05T04:35:41.011Z,31.90
2019-02-05T04:36:40.918Z,28.80
2019-02-05T04:37:40.826Z,28.30
2019-02-05T04:38:40.746Z,28.20
2019-02-05T04:39:40.649Z,29.40
2019-02-05T04:40:40.580Z,29.30
2019-02-05T04:41:40.477Z,30.30
2019-02-05T04:42:40.393Z,30.50
2019-02-05T04:43:40.302Z,31.90
2019-02-05T04:44:40.220Z,29.10
2019-02-05T04:45:40.143Z,30.80
2019-02-05T04:46:40.040Z,34.60
2019-02-05T04:47:39.954Z,29.80
2019-02-05T04:48:43.457Z,30.30
2019-02-05T04:49:39.777Z,31.20
2019-02-05T04:50:39.710Z,30.40
2019-02-05T04:51:39.600Z,30.00
2019-02-05T04:52:39.513Z,32.30
2019-02-05T04:53:39.433Z,30.00
2019-02-05T04:54:39.343Z,33.40
2019-02-05T04:55:39.275Z,33.40
2019-02-05T04:56:39.164Z,33.10
2019-02-05T04:57:39.078Z,33.10
2019-02-05T04:58:38.999Z,32.00
2019-02-05T04:59:38.903Z,33.30
2019-02-05T05:00:38.874Z,32.40
2019-02-05T05:01:38.735Z,32.10
2019-02-05T05:02:38.643Z,31.40
2019-02-05T05:03:38.581Z,33.40
2019-02-05T05:04:38.467Z,31.80
2019-02-05T05:05:38.393Z,36.60
2019-02-05T05:06:38.292Z,32.50
2019-02-05T05:07:38.208Z,33.60
2019-02-05T05:08:38.117Z,34.20
2019-02-05T05:09:38.037Z,33.30
2019-02-05T05:10:37.971Z,34.50
2019-02-05T05:11:40.918Z,29.60
2019-02-05T05:12:37.768Z,34.20
2019-02-05T05:13:37.791Z,35.90
2019-02-05T05:14:37.598Z,32.30
2019-02-05T05:15:37.513Z,33.90
2019-02-05T05:16:37.435Z,33.80
2019-02-05T05:17:37.345Z,35.90
2019-02-05T05:18:37.246Z,34.80
2019-02-05T05:19:37.166Z,33.90
2019-02-05T05:20:37.071Z,31.70
2019-02-05T05:21:37.003Z,34.10
2019-02-05T05:22:36.898Z,32.30
2019-02-05T05:23:36.815Z,35.50
2019-02-05T05:24:36.722Z,33.30
2019-02-05T05:25:36.754Z,35.00
2019-02-05T05:26:36.570Z,33.20
2019-02-05T05:27:37.482Z,35.40
2019-02-05T05:28:36.374Z,73.50
2019-02-05T05:29:36.366Z,36.00
2019-02-05T05:30:36.201Z,35.50
2019-02-05T05:31:36.131Z,36.00
2019-02-05T05:32:36.025Z,33.80
2019-02-05T05:33:35.939Z,38.80
2019-02-05T05:34:35.857Z,30.40
2019-02-05T05:35:41.812Z,32.80
2019-02-05T05:36:35.691Z,32.50
2019-02-05T05:37:35.598Z,35.20
2019-02-05T05:38:35.504Z,34.80
2019-02-05T05:39:35.513Z,35.30
2019-02-05T05:40:35.328Z,34.60
2019-02-05T05:41:35.353Z,35.10
2019-02-05T05:42:35.155Z,34.40
2019-02-05T05:43:35.132Z,36.10
2019-02-05T05:44:34.981Z,36.20
2019-02-05T05:45:34.949Z,32.10
2019-02-05T05:46:34.822Z,33.40
2019-02-05T05:47:34.720Z,33.80
2019-02-05T05:48:34.807Z,33.10
2019-02-05T05:49:34.547Z,32.70
2019-02-05T05:50:34.458Z,32.20
2019-02-05T05:51:34.397Z,34.10
2019-02-05T05:52:34.282Z,35.00
2019-02-05T05:53:34.196Z,31.70
2019-02-05T05:54:34.119Z,33.50
2019-02-05T05:55:34.025Z,30.70
2019-02-05T05:56:33.955Z,33.00
2019-02-05T05:57:33.849Z,33.10
2019-02-05T05:58:33.760Z,33.30
2019-02-05T05:59:33.684Z,31.70
2019-02-05T06:00:33.592Z,35.40
2019-02-05T06:01:33.513Z,34.90
2019-02-05T06:02:33.419Z,31.70
2019-02-05T06:03:33.327Z,35.20
2019-02-05T06:04:33.245Z,30.60
2019-02-05T06:05:33.154Z,32.20
2019-02-05T06:06:33.088Z,36.30
2019-02-05T06:07:32.978Z,34.70
2019-02-05T06:08:32.898Z,33.40
2019-02-05T06:09:32.805Z,37.40
2019-02-05T06:10:32.723Z,35.00
2019-02-05T06:11:32.644Z,36.50
2019-02-05T06:12:32.556Z,34.10
2019-02-05T06:13:32.458Z,35.70
2019-02-05T06:14:32.377Z,33.40
2019-02-05T06:15:32.284Z,36.10
2019-02-05T06:16:32.218Z,35.80
2019-02-05T06:17:32.114Z,34.80
2019-02-05T06:18:32.025Z,35.00
2019-02-05T06:19:31.941Z,37.30
2019-02-05T06:20:31.852Z,33.40
2019-02-05T06:21:31.776Z,36.80
2019-02-05T06:22:31.680Z,37.70
2019-02-05T06:23:31.585Z,35.40
2019-02-05T06:24:31.499Z,35.20
2019-02-05T06:25:31.421Z,35.80
2019-02-05T06:26:31.337Z,34.00
2019-02-05T06:27:31.237Z,31.40
2019-02-05T06:28:34.674Z,31.30
2019-02-05T06:29:31.064Z,32.40
2019-02-05T06:30:30.977Z,34.80
2019-02-05T06:31:30.909Z,34.70
2019-02-05T06:32:30.809Z,35.70
2019-02-05T06:33:30.721Z,34.40
2019-02-05T06:34:30.641Z,30.70
2019-02-05T06:35:30.541Z,33.00
2019-02-05T06:36:30.482Z,33.60
2019-02-05T06:37:30.374Z,30.50
2019-02-05T06:38:30.282Z,29.00
2019-02-05T06:39:30.201Z,29.80
2019-02-05T06:40:30.108Z,29.30
2019-02-05T06:41:30.026Z,33.00
2019-02-05T06:42:29.946Z,31.70
2019-02-05T06:43:29.853Z,33.80
2019-02-05T06:44:29.758Z,31.30
2019-02-05T06:45:29.677Z,31.10
2019-02-05T06:46:29.585Z,33.10
2019-02-05T06:47:29.517Z,29.80
2019-02-05T06:48:29.412Z,32.10
2019-02-05T06:49:29.322Z,31.20
2019-02-05T06:50:29.241Z,29.60
2019-02-05T06:51:29.149Z,31.80
2019-02-05T06:52:29.074Z,32.20
2019-02-05T06:53:28.980Z,32.80
2019-02-05T06:54:28.891Z,33.20
2019-02-05T06:55:28.802Z,28.50
2019-02-05T06:56:28.720Z,28.50
2019-02-05T06:57:28.643Z,33.50
2019-02-05T06:58:28.543Z,29.70
2019-02-05T06:59:28.464Z,27.80
2019-02-05T07:00:28.368Z,29.70
2019-02-05T07:01:28.281Z,29.30
2019-02-05T07:02:28.225Z,27.30
2019-02-05T07:03:28.104Z,30.20
2019-02-05T07:04:28.020Z,26.90
2019-02-05T07:05:27.936Z,28.80
2019-02-05T07:06:27.844Z,30.40
2019-02-05T07:07:27.776Z,32.30
2019-02-05T07:08:27.669Z,28.80
2019-02-05T07:09:27.582Z,29.40
2019-02-05T07:10:27.504Z,28.10
2019-02-05T07:11:27.409Z,29.60
2019-02-05T07:12:27.337Z,29.00
2019-02-05T07:13:27.241Z,28.40
2019-02-05T07:14:27.148Z,30.20
2019-02-05T07:15:27.069Z,31.90
2019-02-05T07:16:26.974Z,29.20
2019-02-05T07:17:26.904Z,29.80
2019-02-05T07:18:26.801Z,28.40
2019-02-05T07:19:26.719Z,27.80
2019-02-05T07:20:26.629Z,29.10
2019-02-05T07:21:26.544Z,30.70
2019-02-05T07:22:26.468Z,30.50
2019-02-05T07:23:26.372Z,28.30
2019-02-05T07:24:26.277Z,29.70
2019-02-05T07:25:26.190Z,27.10
2019-02-05T07:26:26.106Z,29.60
2019-02-05T07:27:26.038Z,29.60
2019-02-05T07:28:25.930Z,30.30
2019-02-05T07:29:25.850Z,30.20
2019-02-05T07:30:25.760Z,28.00
2019-02-05T07:31:25.675Z,28.00
2019-02-05T07:32:25.596Z,29.80
2019-02-05T07:33:25.496Z,26.80
2019-02-05T07:34:25.569Z,26.60
2019-02-05T07:35:25.329Z,26.70
2019-02-05T07:36:25.231Z,32.00
2019-02-05T07:37:25.169Z,24.50
2019-02-05T07:38:25.065Z,27.90
2019-02-05T07:39:27.550Z,26.90
2019-02-05T07:40:24.903Z,25.10
2019-02-05T07:41:24.802Z,29.80
2019-02-05T07:42:24.731Z,27.80
2019-02-05T07:43:24.633Z,27.60
2019-02-05T07:44:24.541Z,25.80
2019-02-05T07:45:24.454Z,26.50
2019-02-05T07:46:24.372Z,28.00
2019-02-05T07:47:24.296Z,27.60
2019-02-05T07:48:24.194Z,29.10
2019-02-05T07:49:24.115Z,30.40
2019-02-05T07:50:24.023Z,27.70
2019-02-05T07:51:23.939Z,28.50
2019-02-05T07:52:23.860Z,25.90
2019-02-05T07:53:23.768Z,25.90
2019-02-05T07:54:23.677Z,26.10
2019-02-05T07:55:23.588Z,27.40
2019-02-05T07:56:23.507Z,26.50
2019-02-05T07:57:23.439Z,26.90
2019-02-05T07:58:23.327Z,28.90
2019-02-05T07:59:23.245Z,32.70
2019-02-05T08:00:23.158Z,32.80
2019-02-05T08:01:23.076Z,24.30
2019-02-05T08:02:22.997Z,26.30
2019-02-05T08:03:22.903Z,27.10
2019-02-05T08:04:22.807Z,24.00
2019-02-05T08:05:22.720Z,30.30
2019-02-05T08:06:22.642Z,28.00
2019-02-05T08:07:22.546Z,25.20
2019-02-05T08:08:22.595Z,25.40
2019-02-05T08:09:22.381Z,25.20
2019-02-05T08:10:22.291Z,28.90
2019-02-05T08:11:22.203Z,23.90
2019-02-05T08:12:22.116Z,22.40
2019-02-05T08:13:22.047Z,23.00
2019-02-05T08:14:21.942Z,23.20
2019-02-05T08:15:21.864Z,22.20
2019-02-05T08:16:21.770Z,22.80
2019-02-05T08:17:21.689Z,22.90
2019-02-05T08:18:21.615Z,23.10
2019-02-05T08:19:21.513Z,25.70
2019-02-05T08:20:21.431Z,24.40
2019-02-05T08:21:21.338Z,25.70
2019-02-05T08:22:21.250Z,21.60
2019-02-05T08:23:21.184Z,23.10
2019-02-05T08:24:21.080Z,24.30
2019-02-05T08:25:20.995Z,23.30
2019-02-05T08:26:20.913Z,23.60
2019-02-05T08:27:20.831Z,24.50
2019-02-05T08:28:20.757Z,25.60
2019-02-05T08:29:21.906Z,21.70
2019-02-05T08:30:20.667Z,21.70
2019-02-05T08:31:20.481Z,22.60
2019-02-05T08:32:20.389Z,22.90
2019-02-05T08:33:20.322Z,23.00
2019-02-05T08:34:20.219Z,23.00
2019-02-05T08:35:20.137Z,22.50
2019-02-05T08:36:20.047Z,21.10
2019-02-05T08:37:19.969Z,19.10
2019-02-05T08:38:19.884Z,21.70
2019-02-05T08:39:19.790Z,21.60
2019-02-05T08:40:19.699Z,22.00
2019-02-05T08:41:19.618Z,19.30
2019-02-05T08:42:19.529Z,22.30
2019-02-05T08:43:19.461Z,22.90
2019-02-05T08:44:19.354Z,21.40
2019-02-05T08:45:19.275Z,19.60
2019-02-05T08:46:19.184Z,22.20
2019-02-05T08:47:19.103Z,23.60
2019-02-05T08:48:19.025Z,23.60
2019-02-05T08:49:18.933Z,24.80
2019-02-05T08:50:18.839Z,23.40
2019-02-05T08:51:18.758Z,24.00
2019-02-05T08:52:18.665Z,23.50
2019-02-05T08:53:18.599Z,24.20
2019-02-05T08:54:18.496Z,21.00
2019-02-05T08:55:18.409Z,23.20
2019-02-05T08:56:18.332Z,21.60
2019-02-05T08:57:18.237Z,22.40
2019-02-05T08:58:18.170Z,23.10
2019-02-05T08:59:18.074Z,23.30
2019-02-05T09:00:17.978Z,22.20
2019-02-05T09:01:17.899Z,21.70
2019-02-05T09:02:17.807Z,20.50
2019-02-05T09:03:17.739Z,22.50
2019-02-05T09:04:17.635Z,20.60
2019-02-05T09:05:17.555Z,20.90
2019-02-05T09:06:17.465Z,21.40
2019-02-05T09:07:17.386Z,24.00
2019-02-05T09:08:17.306Z,20.40
2019-02-05T09:09:17.210Z,19.60
2019-02-05T09:10:17.120Z,23.20
2019-02-05T09:11:17.035Z,22.70
2019-02-05T09:12:18.036Z,21.90
2019-02-05T09:13:16.879Z,23.60
2019-02-05T09:14:16.776Z,19.80
2019-02-05T09:15:16.697Z,21.50
2019-02-05T09:16:16.609Z,22.80
2019-02-05T09:17:16.519Z,20.10
2019-02-05T09:18:16.455Z,20.90
2019-02-05T09:19:16.348Z,21.50
2019-02-05T09:20:16.264Z,21.70
2019-02-05T09:21:16.185Z,21.00
2019-02-05T09:22:16.091Z,17.40
2019-02-05T09:23:16.023Z,18.30
2019-02-05T09:24:15.919Z,19.70
2019-02-05T09:25:15.834Z,18.20
2019-02-05T09:26:15.757Z,20.90
2019-02-05T09:27:15.671Z,19.00
2019-02-05T09:28:15.590Z,18.20
2019-02-05T09:29:15.499Z,17.60
2019-02-05T09:30:15.405Z,21.80
2019-02-05T09:31:15.321Z,19.70
2019-02-05T09:32:15.245Z,18.40
2019-02-05T09:33:15.258Z,18.00
2019-02-05T09:34:15.067Z,17.20
2019-02-05T09:35:14.983Z,20.20
2019-02-05T09:36:14.892Z,18.30
2019-02-05T09:37:14.808Z,19.10
2019-02-05T09:38:14.728Z,18.60
2019-02-05T09:39:14.656Z,20.40
2019-02-05T09:40:14.550Z,17.60
2019-02-05T09:41:14.470Z,20.30
2019-02-05T09:42:14.380Z,17.40
2019-02-05T09:43:14.298Z,16.20
2019-02-05T09:44:14.220Z,18.10
2019-02-05T09:45:14.129Z,16.60
2019-02-05T09:46:14.043Z,18.90
2019-02-05T09:47:13.959Z,17.20
2019-02-05T09:48:13.867Z,16.30
2019-02-05T09:49:13.803Z,16.10
2019-02-05T09:50:13.697Z,17.40
2019-02-05T09:51:13.620Z,19.10
2019-02-05T09:52:13.524Z,18.30
2019-02-05T09:53:13.447Z,19.00
2019-02-05T09:54:13.372Z,22.70
2019-02-05T09:55:13.269Z,21.70
2019-02-05T09:56:13.200Z,19.60
2019-02-05T09:57:13.100Z,18.40
2019-02-05T09:58:13.013Z,17.10
2019-02-05T09:59:12.948Z,16.90
2019-02-05T10:00:12.845Z,18.30
2019-02-05T10:01:12.758Z,21.00
2019-02-05T10:02:12.682Z,27.70
2019-02-05T10:03:12.589Z,26.20
2019-02-05T10:04:12.515Z,23.30
2019-02-05T10:05:12.424Z,25.50
2019-02-05T10:06:12.337Z,20.20
2019-02-05T10:07:12.249Z,20.10
2019-02-05T10:08:12.164Z,18.10
2019-02-05T10:09:12.092Z,17.80
2019-02-05T10:10:12.014Z,18.00
2019-02-05T10:11:11.906Z,20.20
2019-02-05T10:12:11.830Z,19.50
2019-02-05T10:13:11.738Z,20.30
2019-02-05T10:14:11.672Z,17.70
2019-02-05T10:15:11.568Z,20.80
2019-02-05T10:16:11.490Z,19.30
2019-02-05T10:17:11.397Z,18.70
2019-02-05T10:18:11.318Z,21.90
2019-02-05T10:19:11.364Z,20.30
2019-02-05T10:20:11.170Z,19.30
2019-02-05T10:21:11.060Z,18.20
2019-02-05T10:22:10.978Z,20.20
2019-02-05T10:23:10.889Z,19.50
2019-02-05T10:24:10.829Z,18.30
2019-02-05T10:25:10.719Z,18.20
2019-02-05T10:26:10.639Z,17.80
2019-02-05T10:27:10.546Z,17.20
2019-02-05T10:28:10.480Z,19.40
2019-02-05T10:29:10.389Z,16.70
2019-02-05T10:30:10.300Z,16.00
2019-02-05T10:31:10.205Z,16.80
2019-02-05T10:32:10.123Z,17.20
2019-02-05T10:33:10.042Z,16.70
2019-02-05T10:34:09.967Z,15.70
2019-02-05T10:35:09.869Z,15.90
2019-02-05T10:36:09.787Z,16.70
2019-02-05T10:37:09.698Z,16.10
2019-02-05T10:38:09.618Z,17.20
2019-02-05T10:39:09.539Z,16.50
2019-02-05T10:40:09.446Z,16.80
2019-02-05T10:41:09.357Z,16.70
2019-02-05T10:42:09.273Z,16.70
2019-02-05T10:43:09.193Z,16.40
2019-02-05T10:44:09.128Z,17.20
2019-02-05T10:45:09.100Z,16.70
2019-02-05T10:46:08.939Z,17.30
2019-02-05T10:47:08.848Z,16.80
2019-02-05T10:48:08.770Z,16.70
2019-02-05T10:49:08.694Z,17.10
2019-02-05T10:50:08.599Z,17.30
2019-02-05T10:51:08.507Z,17.70
2019-02-05T10:52:08.430Z,17.60
2019-02-05T10:53:08.346Z,17.50
2019-02-05T10:54:08.271Z,19.10
2019-02-05T10:55:08.185Z,18.80
2019-02-05T10:56:08.083Z,21.80
2019-02-05T10:57:08.107Z,19.00
2019-02-05T10:58:07.914Z,17.60
2019-02-05T10:59:07.832Z,16.60
2019-02-05T11:00:09.220Z,17.70
2019-02-05T11:01:07.661Z,16.90
2019-02-05T11:02:07.595Z,18.40
2019-02-05T11:03:07.501Z,17.10
2019-02-05T11:04:07.405Z,17.90
2019-02-05T11:05:07.345Z,18.60
2019-02-05T11:06:07.237Z,18.10
2019-02-05T11:07:07.150Z,17.90
2019-02-05T11:08:07.073Z,19.60
2019-02-05T11:09:06.986Z,20.60
2019-02-05T11:10:06.911Z,19.00
2019-02-05T11:11:06.818Z,19.10
2019-02-05T11:12:06.727Z,18.80
2019-02-05T11:13:06.652Z,21.40
2019-02-05T11:14:06.567Z,18.80
2019-02-05T11:15:06.492Z,20.30
2019-02-05T11:16:06.388Z,20.80
2019-02-05T11:17:06.302Z,19.10
2019-02-05T11:18:06.225Z,18.30
2019-02-05T11:19:06.133Z,18.90
2019-02-05T11:20:06.071Z,19.00
2019-02-05T11:21:05.971Z,19.90
2019-02-05T11:22:05.878Z,18.80
2019-02-05T11:23:05.818Z,21.20
2019-02-05T11:24:05.708Z,18.20
2019-02-05T11:25:05.651Z,19.90
2019-02-05T11:26:05.542Z,18.20
2019-02-05T11:27:05.455Z,18.90
2019-02-05T11:28:05.375Z,17.90
2019-02-05T11:29:05.284Z,18.60
2019-02-05T11:30:05.214Z,18.90
2019-02-05T11:31:05.129Z,18.90
2019-02-05T11:32:05.030Z,18.50
2019-02-05T11:33:04.958Z,18.00
2019-02-05T11:34:04.935Z,18.70
2019-02-05T11:35:04.795Z,27.30
2019-02-05T11:36:04.699Z,23.70
2019-02-05T11:37:04.613Z,24.90
2019-02-05T11:38:04.523Z,23.60
2019-02-05T11:39:04.445Z,20.50
2019-02-05T11:40:04.369Z,19.70
2019-02-05T11:41:04.289Z,19.30
2019-02-05T11:42:04.184Z,19.50
2019-02-05T11:43:04.097Z,23.70
2019-02-05T11:44:04.021Z,28.20
2019-02-05T11:45:03.954Z,21.40
2019-02-05T11:46:03.845Z,24.20
2019-02-05T11:47:04.079Z,21.20
2019-02-05T11:48:03.675Z,21.10
2019-02-05T11:49:03.593Z,19.50
2019-02-05T11:50:03.542Z,20.00
2019-02-05T11:51:03.426Z,19.50
2019-02-05T11:52:03.340Z,19.50
2019-02-05T11:53:03.261Z,19.20
2019-02-05T11:54:03.170Z,19.90
2019-02-05T11:55:03.102Z,19.00
2019-02-05T11:56:03.004Z,20.40
2019-02-05T11:57:02.921Z,20.80
2019-02-05T11:58:02.830Z,17.90
2019-02-05T11:59:02.755Z,19.00
2019-02-05T12:00:02.676Z,19.00
2019-02-05T12:01:02.591Z,19.40
2019-02-05T12:02:02.527Z,19.90
2019-02-05T12:03:02.406Z,18.80
2019-02-05T12:04:02.342Z,17.30
2019-02-05T12:05:02.261Z,16.40
2019-02-05T12:06:02.164Z,16.20
2019-02-05T12:07:02.086Z,18.40
2019-02-05T12:08:01.986Z,18.80
2019-02-05T12:09:01.921Z,17.70
2019-02-05T12:10:01.840Z,17.10
2019-02-05T12:11:01.742Z,18.20
2019-02-05T12:12:01.652Z,18.90
2019-02-05T12:13:01.569Z,19.70
2019-02-05T12:14:01.484Z,18.40
2019-02-05T12:15:01.413Z,18.80
2019-02-05T12:16:01.321Z,18.60
2019-02-05T12:17:01.237Z,18.50
2019-02-05T12:18:01.141Z,17.40
2019-02-05T12:19:01.061Z,19.10
2019-02-05T12:20:00.998Z,18.30
2019-02-05T12:21:00.890Z,17.00
2019-02-05T12:22:00.812Z,17.70
2019-02-05T12:23:00.724Z,17.30
2019-02-05T12:24:00.638Z,17.70
2019-02-05T12:25:00.545Z,17.60
2019-02-05T12:26:00.485Z,17.40
2019-02-05T12:27:00.402Z,18.50
2019-02-05T12:28:00.303Z,19.00
2019-02-05T12:29:00.217Z,16.70
2019-02-05T12:30:00.335Z,17.30
2019-02-05T12:31:00.055Z,18.20
2019-02-05T12:31:59.961Z,17.70
2019-02-05T12:33:01.819Z,17.90
2019-02-05T12:33:59.794Z,18.30
2019-02-05T12:34:59.716Z,20.20
2019-02-05T12:35:59.641Z,22.10
2019-02-05T12:36:59.538Z,18.10
2019-02-05T12:37:59.462Z,17.90
2019-02-05T12:38:59.367Z,17.70
2019-02-05T12:39:59.282Z,19.60
2019-02-05T12:40:59.218Z,20.00
2019-02-05T12:41:59.112Z,21.50
2019-02-05T12:42:59.027Z,21.60
2019-02-05T12:43:59.745Z,23.10
2019-02-05T12:44:58.864Z,18.70
2019-02-05T12:45:58.788Z,19.50
2019-02-05T12:46:58.694Z,18.30
2019-02-05T12:47:58.605Z,18.70
2019-02-05T12:48:58.521Z,19.10
2019-02-05T12:49:58.455Z,20.20
2019-02-05T12:50:58.379Z,23.80
2019-02-05T12:51:58.335Z,18.90
2019-02-05T12:52:58.192Z,18.50